sensor_id;sensor_type;location;lat;lon;timestamp;P1;durP1;ratioP1;P2;durP2;ratioP2
23360;SDS011;11852;50.082;18.554;2023-08-08T00:00:23;2.3;;;0.6;;
23360;SDS011;11852;50.082;18.554;2023-08-08T00:01:28;3.4;;;0.7;;
23360;SDS011;11852;50.082;18.554;2023-08-08T00:02:34;6.2;;;0.9;;
23360;SDS011;11852;50.082;18.554;2023-08-08T00:03:40;4.1;;;0.7;;
23360;SDS011;11852;50.082;18.554;2023-08-08T00:04:45;3.8;;;0.7;;
23360;SDS011;11852;50.082;18.554;2023-08-08T00:05:50;5.9;;;0.8;;
23360;SDS011;11852;50.082;18.554;2023-08-08T00:06:54;3.1;;;0.7;;
23360;SDS011;11852;50.082;18.554;2023-08-08T00:08:01;2.5;;;0.6;;
23360;SDS011;11852;50.082;18.554;2023-08-08T00:09:07;2.7;;;0.7;;
23360;SDS011;11852;50.082;18.554;2023-08-08T00:10:12;4.0;;;0.7;;
23360;SDS011;11852;50.082;18.554;2023-08-08T00:11:17;3.0;;;0.7;;
23360;SDS011;11852;50.082;18.554;2023-08-08T00:12:22;3.9;;;0.6;;
23360;SDS011;11852;50.082;18.554;2023-08-08T00:13:27;4.2;;;0.8;;
23360;SDS011;11852;50.082;18.554;2023-08-08T00:14:33;3.1;;;0.5;;
23360;SDS011;11852;50.082;18.554;2023-08-08T00:15:37;6.1;;;1.1;;
23360;SDS011;11852;50.082;18.554;2023-08-08T00:16:42;3.9;;;0.8;;
23360;SDS011;11852;50.082;18.554;2023-08-08T00:17:47;3.1;;;0.7;;
23360;SDS011;11852;50.082;18.554;2023-08-08T00:18:52;2.9;;;0.7;;
23360;SDS011;11852;50.082;18.554;2023-08-08T00:19:57;4.3;;;0.8;;
23360;SDS011;11852;50.082;18.554;2023-08-08T00:21:02;2.7;;;0.7;;
23360;SDS011;11852;50.082;18.554;2023-08-08T00:22:06;2.9;;;0.7;;
23360;SDS011;11852;50.082;18.554;2023-08-08T00:23:11;3.8;;;0.5;;
23360;SDS011;11852;50.082;18.554;2023-08-08T00:24:16;3.5;;;0.8;;
23360;SDS011;11852;50.082;18.554;2023-08-08T00:25:21;6.2;;;1.0;;
23360;SDS011;11852;50.082;18.554;2023-08-08T00:26:26;2.2;;;0.6;;
23360;SDS011;11852;50.082;18.554;2023-08-08T00:27:30;4.8;;;0.7;;
23360;SDS011;11852;50.082;18.554;2023-08-08T00:28:35;2.9;;;0.9;;
23360;SDS011;11852;50.082;18.554;2023-08-08T00:29:40;3.5;;;0.7;;
23360;SDS011;11852;50.082;18.554;2023-08-08T00:30:45;3.2;;;0.8;;
23360;SDS011;11852;50.082;18.554;2023-08-08T00:31:50;3.4;;;0.8;;
23360;SDS011;11852;50.082;18.554;2023-08-08T00:32:55;2.4;;;0.8;;
23360;SDS011;11852;50.082;18.554;2023-08-08T00:33:59;4.0;;;0.7;;
23360;SDS011;11852;50.082;18.554;2023-08-08T00:35:04;3.9;;;0.9;;
23360;SDS011;11852;50.082;18.554;2023-08-08T00:36:09;4.6;;;1.0;;
23360;SDS011;11852;50.082;18.554;2023-08-08T00:37:14;5.7;;;0.8;;
23360;SDS011;11852;50.082;18.554;2023-08-08T00:38:19;4.0;;;1.0;;
23360;SDS011;11852;50.082;18.554;2023-08-08T00:39:23;4.0;;;1.0;;
23360;SDS011;11852;50.082;18.554;2023-08-08T00:40:28;3.3;;;0.8;;
23360;SDS011;11852;50.082;18.554;2023-08-08T00:41:33;4.8;;;0.8;;
23360;SDS011;11852;50.082;18.554;2023-08-08T00:42:39;3.0;;;0.9;;
23360;SDS011;11852;50.082;18.554;2023-08-08T00:43:44;3.7;;;1.0;;
23360;SDS011;11852;50.082;18.554;2023-08-08T00:44:50;3.3;;;0.7;;
23360;SDS011;11852;50.082;18.554;2023-08-08T00:45:55;6.4;;;0.7;;
23360;SDS011;11852;50.082;18.554;2023-08-08T00:47:00;3.9;;;0.9;;
23360;SDS011;11852;50.082;18.554;2023-08-08T00:48:05;3.1;;;0.9;;
23360;SDS011;11852;50.082;18.554;2023-08-08T00:49:10;3.0;;;1.0;;
23360;SDS011;11852;50.082;18.554;2023-08-08T00:50:14;4.0;;;0.9;;
23360;SDS011;11852;50.082;18.554;2023-08-08T00:51:19;4.0;;;0.9;;
23360;SDS011;11852;50.082;18.554;2023-08-08T00:52:26;3.5;;;0.9;;
23360;SDS011;11852;50.082;18.554;2023-08-08T00:53:31;4.4;;;1.1;;
23360;SDS011;11852;50.082;18.554;2023-08-08T00:54:36;3.5;;;0.9;;
23360;SDS011;11852;50.082;18.554;2023-08-08T00:55:41;4.7;;;1.1;;
23360;SDS011;11852;50.082;18.554;2023-08-08T00:56:45;3.8;;;1.0;;
23360;SDS011;11852;50.082;18.554;2023-08-08T00:57:51;3.8;;;0.9;;
23360;SDS011;11852;50.082;18.554;2023-08-08T00:58:56;4.1;;;0.9;;
23360;SDS011;11852;50.082;18.554;2023-08-08T01:00:01;5.0;;;1.1;;
23360;SDS011;11852;50.082;18.554;2023-08-08T01:01:07;3.8;;;0.9;;
23360;SDS011;11852;50.082;18.554;2023-08-08T01:02:13;3.3;;;0.8;;
23360;SDS011;11852;50.082;18.554;2023-08-08T01:03:17;2.9;;;0.7;;
23360;SDS011;11852;50.082;18.554;2023-08-08T01:04:24;3.9;;;1.0;;
23360;SDS011;11852;50.082;18.554;2023-08-08T01:05:30;5.2;;;1.0;;
23360;SDS011;11852;50.082;18.554;2023-08-08T01:06:37;4.5;;;1.0;;
23360;SDS011;11852;50.082;18.554;2023-08-08T01:08:57;3.6;;;1.0;;
23360;SDS011;11852;50.082;18.554;2023-08-08T01:10:02;4.8;;;1.1;;
23360;SDS011;11852;50.082;18.554;2023-08-08T01:11:10;4.3;;;1.2;;
23360;SDS011;11852;50.082;18.554;2023-08-08T01:12:15;6.2;;;1.3;;
23360;SDS011;11852;50.082;18.554;2023-08-08T01:13:21;4.4;;;1.2;;
23360;SDS011;11852;50.082;18.554;2023-08-08T01:14:24;5.4;;;1.4;;
23360;SDS011;11852;50.082;18.554;2023-08-08T01:15:34;4.6;;;1.4;;
23360;SDS011;11852;50.082;18.554;2023-08-08T01:16:38;6.3;;;1.2;;
23360;SDS011;11852;50.082;18.554;2023-08-08T01:17:43;5.4;;;1.2;;
23360;SDS011;11852;50.082;18.554;2023-08-08T01:18:48;5.7;;;1.3;;
23360;SDS011;11852;50.082;18.554;2023-08-08T01:19:53;5.8;;;1.4;;
23360;SDS011;11852;50.082;18.554;2023-08-08T01:20:58;5.5;;;1.2;;
23360;SDS011;11852;50.082;18.554;2023-08-08T01:22:05;5.4;;;1.4;;
23360;SDS011;11852;50.082;18.554;2023-08-08T01:24:24;6.7;;;1.3;;
23360;SDS011;11852;50.082;18.554;2023-08-08T01:25:29;7.5;;;1.4;;
23360;SDS011;11852;50.082;18.554;2023-08-08T01:26:34;4.7;;;1.1;;
23360;SDS011;11852;50.082;18.554;2023-08-08T01:27:39;6.3;;;1.5;;
23360;SDS011;11852;50.082;18.554;2023-08-08T01:28:45;5.3;;;1.3;;
23360;SDS011;11852;50.082;18.554;2023-08-08T01:29:50;5.5;;;1.3;;
23360;SDS011;11852;50.082;18.554;2023-08-08T01:30:54;5.4;;;1.3;;
23360;SDS011;11852;50.082;18.554;2023-08-08T01:31:59;4.7;;;1.3;;
23360;SDS011;11852;50.082;18.554;2023-08-08T01:33:04;7.5;;;1.4;;
23360;SDS011;11852;50.082;18.554;2023-08-08T01:34:09;5.4;;;1.3;;
23360;SDS011;11852;50.082;18.554;2023-08-08T01:35:14;6.7;;;1.6;;
23360;SDS011;11852;50.082;18.554;2023-08-08T01:36:27;7.3;;;1.4;;
23360;SDS011;11852;50.082;18.554;2023-08-08T01:37:29;4.9;;;1.3;;
23360;SDS011;11852;50.082;18.554;2023-08-08T01:38:38;6.8;;;1.3;;
23360;SDS011;11852;50.082;18.554;2023-08-08T01:39:44;4.3;;;1.3;;
23360;SDS011;11852;50.082;18.554;2023-08-08T01:40:49;4.2;;;1.2;;
23360;SDS011;11852;50.082;18.554;2023-08-08T01:41:55;5.0;;;1.3;;
23360;SDS011;11852;50.082;18.554;2023-08-08T01:43:00;6.1;;;1.3;;
23360;SDS011;11852;50.082;18.554;2023-08-08T01:44:05;5.8;;;1.4;;
23360;SDS011;11852;50.082;18.554;2023-08-08T01:45:10;4.7;;;1.3;;
23360;SDS011;11852;50.082;18.554;2023-08-08T01:46:15;4.5;;;1.4;;
23360;SDS011;11852;50.082;18.554;2023-08-08T01:47:20;4.9;;;1.2;;
23360;SDS011;11852;50.082;18.554;2023-08-08T01:48:24;5.8;;;1.4;;
23360;SDS011;11852;50.082;18.554;2023-08-08T01:49:30;4.5;;;1.2;;
23360;SDS011;11852;50.082;18.554;2023-08-08T01:50:37;4.6;;;1.2;;
23360;SDS011;11852;50.082;18.554;2023-08-08T01:51:42;5.4;;;1.3;;
23360;SDS011;11852;50.082;18.554;2023-08-08T01:52:47;5.4;;;1.3;;
23360;SDS011;11852;50.082;18.554;2023-08-08T01:53:52;5.2;;;1.4;;
23360;SDS011;11852;50.082;18.554;2023-08-08T01:54:57;4.2;;;1.2;;
23360;SDS011;11852;50.082;18.554;2023-08-08T01:56:03;5.1;;;1.4;;
23360;SDS011;11852;50.082;18.554;2023-08-08T01:57:08;4.7;;;1.4;;
23360;SDS011;11852;50.082;18.554;2023-08-08T01:58:13;7.2;;;1.4;;
23360;SDS011;11852;50.082;18.554;2023-08-08T01:59:19;6.1;;;1.7;;
23360;SDS011;11852;50.082;18.554;2023-08-08T02:00:24;7.2;;;1.6;;
23360;SDS011;11852;50.082;18.554;2023-08-08T02:01:29;7.6;;;1.5;;
23360;SDS011;11852;50.082;18.554;2023-08-08T02:02:34;6.0;;;1.5;;
23360;SDS011;11852;50.082;18.554;2023-08-08T02:03:38;3.9;;;1.1;;
23360;SDS011;11852;50.082;18.554;2023-08-08T02:04:44;5.1;;;1.5;;
23360;SDS011;11852;50.082;18.554;2023-08-08T02:05:48;5.5;;;1.2;;
23360;SDS011;11852;50.082;18.554;2023-08-08T02:06:54;3.6;;;1.3;;
23360;SDS011;11852;50.082;18.554;2023-08-08T02:07:59;5.4;;;1.2;;
23360;SDS011;11852;50.082;18.554;2023-08-08T02:09:04;5.8;;;1.3;;
23360;SDS011;11852;50.082;18.554;2023-08-08T02:10:09;5.5;;;1.1;;
23360;SDS011;11852;50.082;18.554;2023-08-08T02:11:15;5.9;;;1.3;;
23360;SDS011;11852;50.082;18.554;2023-08-08T02:12:20;4.2;;;1.4;;
23360;SDS011;11852;50.082;18.554;2023-08-08T02:13:24;3.7;;;1.0;;
23360;SDS011;11852;50.082;18.554;2023-08-08T02:14:29;5.1;;;1.2;;
23360;SDS011;11852;50.082;18.554;2023-08-08T02:15:34;5.4;;;1.2;;
23360;SDS011;11852;50.082;18.554;2023-08-08T02:16:39;5.1;;;1.1;;
23360;SDS011;11852;50.082;18.554;2023-08-08T02:17:45;5.1;;;1.5;;
23360;SDS011;11852;50.082;18.554;2023-08-08T02:18:48;5.1;;;1.3;;
23360;SDS011;11852;50.082;18.554;2023-08-08T02:19:54;5.3;;;1.4;;
23360;SDS011;11852;50.082;18.554;2023-08-08T02:21:00;5.3;;;1.4;;
23360;SDS011;11852;50.082;18.554;2023-08-08T02:22:05;5.7;;;1.3;;
23360;SDS011;11852;50.082;18.554;2023-08-08T02:23:12;5.1;;;1.3;;
23360;SDS011;11852;50.082;18.554;2023-08-08T02:24:17;4.5;;;1.4;;
23360;SDS011;11852;50.082;18.554;2023-08-08T02:25:22;5.9;;;1.5;;
23360;SDS011;11852;50.082;18.554;2023-08-08T02:26:28;4.6;;;1.3;;
23360;SDS011;11852;50.082;18.554;2023-08-08T02:27:33;4.3;;;1.2;;
23360;SDS011;11852;50.082;18.554;2023-08-08T02:28:37;4.4;;;1.3;;
23360;SDS011;11852;50.082;18.554;2023-08-08T02:29:42;6.0;;;1.4;;
23360;SDS011;11852;50.082;18.554;2023-08-08T02:30:48;8.2;;;1.4;;
23360;SDS011;11852;50.082;18.554;2023-08-08T02:31:53;4.4;;;1.2;;
23360;SDS011;11852;50.082;18.554;2023-08-08T02:32:59;5.6;;;1.4;;
23360;SDS011;11852;50.082;18.554;2023-08-08T02:34:03;5.2;;;1.3;;
23360;SDS011;11852;50.082;18.554;2023-08-08T02:35:09;4.9;;;1.3;;
23360;SDS011;11852;50.082;18.554;2023-08-08T02:36:13;7.3;;;1.4;;
23360;SDS011;11852;50.082;18.554;2023-08-08T02:37:18;6.6;;;1.4;;
23360;SDS011;11852;50.082;18.554;2023-08-08T02:38:23;5.6;;;1.3;;
23360;SDS011;11852;50.082;18.554;2023-08-08T02:39:29;3.8;;;1.1;;
23360;SDS011;11852;50.082;18.554;2023-08-08T02:40:34;4.4;;;1.3;;
23360;SDS011;11852;50.082;18.554;2023-08-08T02:41:38;5.5;;;1.4;;
23360;SDS011;11852;50.082;18.554;2023-08-08T02:42:44;5.7;;;1.4;;
23360;SDS011;11852;50.082;18.554;2023-08-08T02:43:49;4.9;;;1.4;;
23360;SDS011;11852;50.082;18.554;2023-08-08T02:44:54;5.6;;;1.3;;
23360;SDS011;11852;50.082;18.554;2023-08-08T02:45:59;4.7;;;1.4;;
23360;SDS011;11852;50.082;18.554;2023-08-08T02:47:05;5.1;;;1.2;;
23360;SDS011;11852;50.082;18.554;2023-08-08T02:48:10;6.0;;;1.3;;
23360;SDS011;11852;50.082;18.554;2023-08-08T02:49:16;8.3;;;1.6;;
23360;SDS011;11852;50.082;18.554;2023-08-08T02:50:20;6.6;;;1.6;;
23360;SDS011;11852;50.082;18.554;2023-08-08T02:51:26;5.8;;;2.0;;
23360;SDS011;11852;50.082;18.554;2023-08-08T02:52:31;3.8;;;1.4;;
23360;SDS011;11852;50.082;18.554;2023-08-08T02:53:36;6.0;;;1.5;;
23360;SDS011;11852;50.082;18.554;2023-08-08T02:54:40;5.6;;;1.5;;
23360;SDS011;11852;50.082;18.554;2023-08-08T02:55:46;4.6;;;1.5;;
23360;SDS011;11852;50.082;18.554;2023-08-08T02:56:51;6.0;;;1.4;;
23360;SDS011;11852;50.082;18.554;2023-08-08T02:57:56;5.5;;;1.6;;
23360;SDS011;11852;50.082;18.554;2023-08-08T02:59:01;7.4;;;1.7;;
23360;SDS011;11852;50.082;18.554;2023-08-08T03:00:06;6.5;;;2.0;;
23360;SDS011;11852;50.082;18.554;2023-08-08T03:01:10;8.7;;;2.0;;
23360;SDS011;11852;50.082;18.554;2023-08-08T03:02:17;6.8;;;2.9;;
23360;SDS011;11852;50.082;18.554;2023-08-08T03:03:22;8.3;;;2.6;;
23360;SDS011;11852;50.082;18.554;2023-08-08T03:04:28;6.4;;;2.4;;
23360;SDS011;11852;50.082;18.554;2023-08-08T03:05:33;5.9;;;2.3;;
23360;SDS011;11852;50.082;18.554;2023-08-08T03:06:38;9.4;;;2.2;;
23360;SDS011;11852;50.082;18.554;2023-08-08T03:07:43;6.6;;;1.9;;
23360;SDS011;11852;50.082;18.554;2023-08-08T03:08:48;6.2;;;1.6;;
23360;SDS011;11852;50.082;18.554;2023-08-08T03:09:53;6.3;;;1.9;;
23360;SDS011;11852;50.082;18.554;2023-08-08T03:10:58;6.2;;;1.5;;
23360;SDS011;11852;50.082;18.554;2023-08-08T03:12:06;4.7;;;1.3;;
23360;SDS011;11852;50.082;18.554;2023-08-08T03:13:12;4.4;;;1.1;;
23360;SDS011;11852;50.082;18.554;2023-08-08T03:14:16;4.2;;;1.2;;
23360;SDS011;11852;50.082;18.554;2023-08-08T03:15:21;3.5;;;1.2;;
23360;SDS011;11852;50.082;18.554;2023-08-08T03:16:26;4.1;;;1.0;;
23360;SDS011;11852;50.082;18.554;2023-08-08T03:17:31;4.8;;;1.3;;
23360;SDS011;11852;50.082;18.554;2023-08-08T03:18:35;4.9;;;1.1;;
23360;SDS011;11852;50.082;18.554;2023-08-08T03:19:40;5.2;;;1.2;;
23360;SDS011;11852;50.082;18.554;2023-08-08T03:20:46;5.7;;;1.4;;
23360;SDS011;11852;50.082;18.554;2023-08-08T03:21:51;4.5;;;1.2;;
23360;SDS011;11852;50.082;18.554;2023-08-08T03:22:56;6.2;;;1.5;;
23360;SDS011;11852;50.082;18.554;2023-08-08T03:24:01;4.9;;;1.3;;
23360;SDS011;11852;50.082;18.554;2023-08-08T03:25:06;5.9;;;1.5;;
23360;SDS011;11852;50.082;18.554;2023-08-08T03:26:12;6.3;;;1.7;;
23360;SDS011;11852;50.082;18.554;2023-08-08T03:27:17;5.4;;;1.6;;
23360;SDS011;11852;50.082;18.554;2023-08-08T03:28:22;6.0;;;1.5;;
23360;SDS011;11852;50.082;18.554;2023-08-08T03:29:26;6.5;;;1.7;;
23360;SDS011;11852;50.082;18.554;2023-08-08T03:30:31;5.5;;;1.5;;
23360;SDS011;11852;50.082;18.554;2023-08-08T03:31:42;6.9;;;1.6;;
23360;SDS011;11852;50.082;18.554;2023-08-08T03:32:47;8.7;;;1.4;;
23360;SDS011;11852;50.082;18.554;2023-08-08T03:33:53;6.7;;;1.5;;
23360;SDS011;11852;50.082;18.554;2023-08-08T03:34:58;4.9;;;1.7;;
23360;SDS011;11852;50.082;18.554;2023-08-08T03:36:03;6.9;;;1.7;;
23360;SDS011;11852;50.082;18.554;2023-08-08T03:37:08;9.1;;;2.0;;
23360;SDS011;11852;50.082;18.554;2023-08-08T03:38:13;6.8;;;1.8;;
23360;SDS011;11852;50.082;18.554;2023-08-08T03:39:20;6.5;;;1.8;;
23360;SDS011;11852;50.082;18.554;2023-08-08T03:40:25;6.3;;;1.9;;
23360;SDS011;11852;50.082;18.554;2023-08-08T03:41:29;5.5;;;2.0;;
23360;SDS011;11852;50.082;18.554;2023-08-08T03:42:35;6.4;;;1.9;;
23360;SDS011;11852;50.082;18.554;2023-08-08T03:43:40;7.0;;;2.0;;
23360;SDS011;11852;50.082;18.554;2023-08-08T03:44:45;7.4;;;1.8;;
23360;SDS011;11852;50.082;18.554;2023-08-08T03:45:51;7.5;;;2.2;;
23360;SDS011;11852;50.082;18.554;2023-08-08T03:46:56;5.8;;;1.8;;
23360;SDS011;11852;50.082;18.554;2023-08-08T03:48:00;5.1;;;1.5;;
23360;SDS011;11852;50.082;18.554;2023-08-08T03:49:05;5.2;;;1.7;;
23360;SDS011;11852;50.082;18.554;2023-08-08T03:50:11;8.4;;;1.7;;
23360;SDS011;11852;50.082;18.554;2023-08-08T03:51:17;6.6;;;1.7;;
23360;SDS011;11852;50.082;18.554;2023-08-08T03:52:21;4.4;;;1.8;;
23360;SDS011;11852;50.082;18.554;2023-08-08T03:53:26;5.8;;;1.3;;
23360;SDS011;11852;50.082;18.554;2023-08-08T03:54:31;7.3;;;1.5;;
23360;SDS011;11852;50.082;18.554;2023-08-08T03:55:36;6.2;;;1.5;;
23360;SDS011;11852;50.082;18.554;2023-08-08T03:56:41;6.0;;;1.4;;
23360;SDS011;11852;50.082;18.554;2023-08-08T03:57:45;6.4;;;1.2;;
23360;SDS011;11852;50.082;18.554;2023-08-08T03:58:50;4.3;;;1.1;;
23360;SDS011;11852;50.082;18.554;2023-08-08T03:59:55;8.7;;;1.7;;
23360;SDS011;11852;50.082;18.554;2023-08-08T04:01:00;5.0;;;1.3;;
23360;SDS011;11852;50.082;18.554;2023-08-08T04:02:05;5.2;;;1.4;;
23360;SDS011;11852;50.082;18.554;2023-08-08T04:03:09;4.3;;;1.2;;
23360;SDS011;11852;50.082;18.554;2023-08-08T04:04:14;5.0;;;1.5;;
23360;SDS011;11852;50.082;18.554;2023-08-08T04:05:19;5.7;;;1.4;;
23360;SDS011;11852;50.082;18.554;2023-08-08T04:06:24;5.6;;;1.2;;
23360;SDS011;11852;50.082;18.554;2023-08-08T04:07:30;4.6;;;1.2;;
23360;SDS011;11852;50.082;18.554;2023-08-08T04:08:38;5.7;;;1.5;;
23360;SDS011;11852;50.082;18.554;2023-08-08T04:09:43;4.5;;;1.4;;
23360;SDS011;11852;50.082;18.554;2023-08-08T04:10:48;5.6;;;1.5;;
23360;SDS011;11852;50.082;18.554;2023-08-08T04:11:52;4.8;;;1.4;;
23360;SDS011;11852;50.082;18.554;2023-08-08T04:12:57;5.3;;;1.5;;
23360;SDS011;11852;50.082;18.554;2023-08-08T04:14:02;7.2;;;1.5;;
23360;SDS011;11852;50.082;18.554;2023-08-08T04:15:08;4.7;;;1.6;;
23360;SDS011;11852;50.082;18.554;2023-08-08T04:16:13;5.4;;;1.7;;
23360;SDS011;11852;50.082;18.554;2023-08-08T04:17:18;4.1;;;1.5;;
23360;SDS011;11852;50.082;18.554;2023-08-08T04:18:22;6.6;;;1.6;;
23360;SDS011;11852;50.082;18.554;2023-08-08T04:19:28;7.4;;;1.7;;
23360;SDS011;11852;50.082;18.554;2023-08-08T04:20:33;5.2;;;1.5;;
23360;SDS011;11852;50.082;18.554;2023-08-08T04:21:38;5.2;;;1.5;;
23360;SDS011;11852;50.082;18.554;2023-08-08T04:22:43;6.2;;;1.5;;
23360;SDS011;11852;50.082;18.554;2023-08-08T04:23:51;4.7;;;1.4;;
23360;SDS011;11852;50.082;18.554;2023-08-08T04:24:55;4.2;;;1.4;;
23360;SDS011;11852;50.082;18.554;2023-08-08T04:26:00;5.3;;;1.2;;
23360;SDS011;11852;50.082;18.554;2023-08-08T04:27:05;5.8;;;1.6;;
23360;SDS011;11852;50.082;18.554;2023-08-08T04:28:10;4.9;;;1.4;;
23360;SDS011;11852;50.082;18.554;2023-08-08T04:29:15;5.1;;;1.6;;
23360;SDS011;11852;50.082;18.554;2023-08-08T04:30:19;6.0;;;1.6;;
23360;SDS011;11852;50.082;18.554;2023-08-08T04:31:24;5.4;;;1.5;;
23360;SDS011;11852;50.082;18.554;2023-08-08T04:32:29;6.6;;;1.7;;
23360;SDS011;11852;50.082;18.554;2023-08-08T04:33:35;6.0;;;1.5;;
23360;SDS011;11852;50.082;18.554;2023-08-08T04:34:40;5.6;;;1.7;;
23360;SDS011;11852;50.082;18.554;2023-08-08T04:35:46;7.3;;;1.7;;
23360;SDS011;11852;50.082;18.554;2023-08-08T04:36:50;3.9;;;1.4;;
23360;SDS011;11852;50.082;18.554;2023-08-08T04:37:55;6.0;;;1.5;;
23360;SDS011;11852;50.082;18.554;2023-08-08T04:39:00;4.5;;;1.4;;
23360;SDS011;11852;50.082;18.554;2023-08-08T04:40:05;5.0;;;1.4;;
23360;SDS011;11852;50.082;18.554;2023-08-08T04:41:10;5.4;;;1.4;;
23360;SDS011;11852;50.082;18.554;2023-08-08T04:42:15;4.2;;;1.4;;
23360;SDS011;11852;50.082;18.554;2023-08-08T04:43:19;4.3;;;1.4;;
23360;SDS011;11852;50.082;18.554;2023-08-08T04:44:24;5.0;;;1.5;;
23360;SDS011;11852;50.082;18.554;2023-08-08T04:45:30;9.1;;;1.8;;
23360;SDS011;11852;50.082;18.554;2023-08-08T04:46:36;5.5;;;2.0;;
23360;SDS011;11852;50.082;18.554;2023-08-08T04:47:41;5.8;;;1.6;;
23360;SDS011;11852;50.082;18.554;2023-08-08T04:48:45;5.5;;;1.6;;
23360;SDS011;11852;50.082;18.554;2023-08-08T04:49:52;6.8;;;1.9;;
23360;SDS011;11852;50.082;18.554;2023-08-08T04:50:57;7.1;;;2.1;;
23360;SDS011;11852;50.082;18.554;2023-08-08T04:52:01;8.9;;;1.9;;
23360;SDS011;11852;50.082;18.554;2023-08-08T04:53:06;6.6;;;1.6;;
23360;SDS011;11852;50.082;18.554;2023-08-08T04:54:12;7.0;;;1.7;;
23360;SDS011;11852;50.082;18.554;2023-08-08T04:55:18;4.9;;;1.6;;
23360;SDS011;11852;50.082;18.554;2023-08-08T04:56:23;6.5;;;1.5;;
23360;SDS011;11852;50.082;18.554;2023-08-08T04:57:27;6.6;;;1.8;;
23360;SDS011;11852;50.082;18.554;2023-08-08T04:58:33;4.9;;;1.7;;
23360;SDS011;11852;50.082;18.554;2023-08-08T04:59:38;5.2;;;1.8;;
23360;SDS011;11852;50.082;18.554;2023-08-08T05:00:44;8.4;;;1.6;;
23360;SDS011;11852;50.082;18.554;2023-08-08T05:01:49;5.4;;;1.6;;
23360;SDS011;11852;50.082;18.554;2023-08-08T05:02:54;5.2;;;1.9;;
23360;SDS011;11852;50.082;18.554;2023-08-08T05:03:59;5.8;;;1.7;;
23360;SDS011;11852;50.082;18.554;2023-08-08T05:05:04;6.0;;;1.7;;
23360;SDS011;11852;50.082;18.554;2023-08-08T05:06:09;6.2;;;1.9;;
23360;SDS011;11852;50.082;18.554;2023-08-08T05:07:14;6.8;;;1.9;;
23360;SDS011;11852;50.082;18.554;2023-08-08T05:08:18;6.1;;;1.9;;
23360;SDS011;11852;50.082;18.554;2023-08-08T05:09:27;6.7;;;1.9;;
23360;SDS011;11852;50.082;18.554;2023-08-08T05:10:32;7.7;;;1.9;;
23360;SDS011;11852;50.082;18.554;2023-08-08T05:11:37;6.5;;;1.8;;
23360;SDS011;11852;50.082;18.554;2023-08-08T05:12:41;7.1;;;2.0;;
23360;SDS011;11852;50.082;18.554;2023-08-08T05:13:46;6.5;;;1.9;;
23360;SDS011;11852;50.082;18.554;2023-08-08T05:14:52;7.3;;;1.9;;
23360;SDS011;11852;50.082;18.554;2023-08-08T05:15:57;6.9;;;2.0;;
23360;SDS011;11852;50.082;18.554;2023-08-08T05:17:04;7.2;;;2.0;;
23360;SDS011;11852;50.082;18.554;2023-08-08T05:18:08;6.8;;;2.0;;
23360;SDS011;11852;50.082;18.554;2023-08-08T05:19:13;6.8;;;1.9;;
23360;SDS011;11852;50.082;18.554;2023-08-08T05:20:18;5.7;;;2.0;;
23360;SDS011;11852;50.082;18.554;2023-08-08T05:21:23;7.2;;;2.0;;
23360;SDS011;11852;50.082;18.554;2023-08-08T05:22:27;7.6;;;1.9;;
23360;SDS011;11852;50.082;18.554;2023-08-08T05:23:32;5.2;;;1.7;;
23360;SDS011;11852;50.082;18.554;2023-08-08T05:24:37;4.5;;;1.3;;
23360;SDS011;11852;50.082;18.554;2023-08-08T05:25:42;5.3;;;1.6;;
23360;SDS011;11852;50.082;18.554;2023-08-08T05:26:47;6.6;;;1.7;;
23360;SDS011;11852;50.082;18.554;2023-08-08T05:27:51;4.5;;;1.6;;
23360;SDS011;11852;50.082;18.554;2023-08-08T05:28:56;6.0;;;1.7;;
23360;SDS011;11852;50.082;18.554;2023-08-08T05:30:01;5.5;;;1.6;;
23360;SDS011;11852;50.082;18.554;2023-08-08T05:31:06;4.3;;;1.4;;
23360;SDS011;11852;50.082;18.554;2023-08-08T05:32:11;6.9;;;1.7;;
23360;SDS011;11852;50.082;18.554;2023-08-08T05:33:15;5.8;;;1.6;;
23360;SDS011;11852;50.082;18.554;2023-08-08T05:34:21;5.4;;;1.4;;
23360;SDS011;11852;50.082;18.554;2023-08-08T05:35:25;4.3;;;1.3;;
23360;SDS011;11852;50.082;18.554;2023-08-08T05:36:30;4.3;;;1.4;;
23360;SDS011;11852;50.082;18.554;2023-08-08T05:37:35;5.3;;;1.5;;
23360;SDS011;11852;50.082;18.554;2023-08-08T05:38:40;4.7;;;1.3;;
23360;SDS011;11852;50.082;18.554;2023-08-08T05:39:44;9.3;;;1.3;;
23360;SDS011;11852;50.082;18.554;2023-08-08T05:40:49;4.6;;;1.4;;
23360;SDS011;11852;50.082;18.554;2023-08-08T05:41:54;4.5;;;1.3;;
23360;SDS011;11852;50.082;18.554;2023-08-08T05:42:59;4.6;;;1.5;;
23360;SDS011;11852;50.082;18.554;2023-08-08T05:44:04;6.2;;;1.6;;
23360;SDS011;11852;50.082;18.554;2023-08-08T05:45:08;6.8;;;1.8;;
23360;SDS011;11852;50.082;18.554;2023-08-08T05:46:13;4.8;;;1.6;;
23360;SDS011;11852;50.082;18.554;2023-08-08T05:47:19;5.9;;;1.6;;
23360;SDS011;11852;50.082;18.554;2023-08-08T05:48:24;6.1;;;1.8;;
23360;SDS011;11852;50.082;18.554;2023-08-08T05:49:30;4.4;;;1.5;;
23360;SDS011;11852;50.082;18.554;2023-08-08T05:50:34;5.6;;;1.8;;
23360;SDS011;11852;50.082;18.554;2023-08-08T05:51:40;5.3;;;1.9;;
23360;SDS011;11852;50.082;18.554;2023-08-08T05:52:46;5.0;;;1.5;;
23360;SDS011;11852;50.082;18.554;2023-08-08T05:53:51;5.3;;;1.4;;
23360;SDS011;11852;50.082;18.554;2023-08-08T05:54:56;4.9;;;1.4;;
23360;SDS011;11852;50.082;18.554;2023-08-08T05:56:01;6.0;;;1.7;;
23360;SDS011;11852;50.082;18.554;2023-08-08T05:57:06;5.0;;;1.4;;
23360;SDS011;11852;50.082;18.554;2023-08-08T05:58:11;5.5;;;1.3;;
23360;SDS011;11852;50.082;18.554;2023-08-08T05:59:16;4.8;;;1.4;;
23360;SDS011;11852;50.082;18.554;2023-08-08T06:00:21;7.6;;;1.7;;
23360;SDS011;11852;50.082;18.554;2023-08-08T06:01:25;5.4;;;1.4;;
23360;SDS011;11852;50.082;18.554;2023-08-08T06:02:30;6.6;;;1.8;;
23360;SDS011;11852;50.082;18.554;2023-08-08T06:03:35;5.5;;;1.8;;
23360;SDS011;11852;50.082;18.554;2023-08-08T06:04:40;6.1;;;1.7;;
23360;SDS011;11852;50.082;18.554;2023-08-08T06:05:46;4.8;;;1.6;;
23360;SDS011;11852;50.082;18.554;2023-08-08T06:06:53;5.5;;;1.4;;
23360;SDS011;11852;50.082;18.554;2023-08-08T06:07:58;7.0;;;1.6;;
23360;SDS011;11852;50.082;18.554;2023-08-08T06:09:03;6.3;;;1.7;;
23360;SDS011;11852;50.082;18.554;2023-08-08T06:10:09;5.8;;;1.5;;
23360;SDS011;11852;50.082;18.554;2023-08-08T06:11:14;4.5;;;1.5;;
23360;SDS011;11852;50.082;18.554;2023-08-08T06:12:19;6.8;;;1.6;;
23360;SDS011;11852;50.082;18.554;2023-08-08T06:13:24;4.5;;;1.5;;
23360;SDS011;11852;50.082;18.554;2023-08-08T06:14:30;7.1;;;1.7;;
23360;SDS011;11852;50.082;18.554;2023-08-08T06:15:33;7.1;;;1.8;;
23360;SDS011;11852;50.082;18.554;2023-08-08T06:16:39;5.9;;;1.7;;
23360;SDS011;11852;50.082;18.554;2023-08-08T06:17:44;5.7;;;1.6;;
23360;SDS011;11852;50.082;18.554;2023-08-08T06:18:48;8.2;;;1.5;;
23360;SDS011;11852;50.082;18.554;2023-08-08T06:19:53;5.1;;;1.4;;
23360;SDS011;11852;50.082;18.554;2023-08-08T06:20:58;5.0;;;1.5;;
23360;SDS011;11852;50.082;18.554;2023-08-08T06:22:03;6.9;;;1.6;;
23360;SDS011;11852;50.082;18.554;2023-08-08T06:23:08;6.6;;;1.6;;
23360;SDS011;11852;50.082;18.554;2023-08-08T06:24:13;4.6;;;1.4;;
23360;SDS011;11852;50.082;18.554;2023-08-08T06:25:17;4.1;;;1.4;;
23360;SDS011;11852;50.082;18.554;2023-08-08T06:26:22;4.5;;;1.5;;
23360;SDS011;11852;50.082;18.554;2023-08-08T06:27:27;7.3;;;1.7;;
23360;SDS011;11852;50.082;18.554;2023-08-08T06:28:32;6.0;;;1.4;;
23360;SDS011;11852;50.082;18.554;2023-08-08T06:29:37;4.0;;;1.2;;
23360;SDS011;11852;50.082;18.554;2023-08-08T06:30:42;6.7;;;1.5;;
23360;SDS011;11852;50.082;18.554;2023-08-08T06:31:46;7.0;;;1.5;;
23360;SDS011;11852;50.082;18.554;2023-08-08T06:32:51;6.2;;;1.6;;
23360;SDS011;11852;50.082;18.554;2023-08-08T06:33:56;4.6;;;1.5;;
23360;SDS011;11852;50.082;18.554;2023-08-08T06:35:01;5.5;;;1.6;;
23360;SDS011;11852;50.082;18.554;2023-08-08T06:36:06;4.0;;;1.3;;
23360;SDS011;11852;50.082;18.554;2023-08-08T06:37:10;5.7;;;1.6;;
23360;SDS011;11852;50.082;18.554;2023-08-08T06:38:15;6.6;;;1.7;;
23360;SDS011;11852;50.082;18.554;2023-08-08T06:39:21;4.4;;;1.5;;
23360;SDS011;11852;50.082;18.554;2023-08-08T06:40:26;6.2;;;1.5;;